createdAt,value
2024-02-02T00:02:16.807Z,7.90
2024-02-02T00:04:43.833Z,7.90
2024-02-02T00:07:10.654Z,7.90
2024-02-02T00:09:37.419Z,7.90
2024-02-02T00:12:07.412Z,7.90
2024-02-02T00:14:34.153Z,7.90
2024-02-02T00:17:00.841Z,7.90
2024-02-02T00:19:27.713Z,7.80
2024-02-02T00:21:54.640Z,7.80
2024-02-02T00:24:21.363Z,7.80
2024-02-02T00:26:48.142Z,7.80
2024-02-02T00:29:15.467Z,7.80
2024-02-02T00:31:42.332Z,7.80
2024-02-02T00:34:09.102Z,7.70
2024-02-02T00:36:36.000Z,7.80
2024-02-02T00:39:02.897Z,7.80
2024-02-02T00:41:29.686Z,7.80
2024-02-02T00:43:56.500Z,7.70
2024-02-02T00:46:23.172Z,7.70
2024-02-02T00:48:49.986Z,7.80
2024-02-02T00:51:16.930Z,7.70
2024-02-02T00:53:43.642Z,7.60
2024-02-02T00:56:10.468Z,7.60
2024-02-02T00:58:37.230Z,7.60
2024-02-02T01:01:04.084Z,7.60
2024-02-02T01:03:34.829Z,7.60
2024-02-02T01:06:01.669Z,7.70
2024-02-02T01:08:28.345Z,7.60
2024-02-02T01:10:55.025Z,7.60
2024-02-02T01:13:21.974Z,7.60
2024-02-02T01:15:48.664Z,7.60
2024-02-02T01:18:16.302Z,7.60
2024-02-02T01:20:46.232Z,7.60
2024-02-02T01:23:13.012Z,7.60
2024-02-02T01:25:39.683Z,7.60
2024-02-02T01:28:06.471Z,7.50
2024-02-02T01:30:33.604Z,7.50
2024-02-02T01:33:00.458Z,7.50
2024-02-02T01:35:27.720Z,7.50
2024-02-02T01:37:55.442Z,7.40
2024-02-02T01:40:22.308Z,7.40
2024-02-02T01:42:49.109Z,7.40
2024-02-02T01:45:16.501Z,7.30
2024-02-02T01:47:43.451Z,7.30
2024-02-02T01:50:10.473Z,7.30
2024-02-02T01:52:37.324Z,7.30
2024-02-02T01:55:05.236Z,7.20
2024-02-02T01:57:31.998Z,7.20
2024-02-02T01:59:58.927Z,7.20
2024-02-02T02:02:25.628Z,7.20
2024-02-02T02:04:52.420Z,7.30
2024-02-02T02:07:19.226Z,7.20
2024-02-02T02:09:46.628Z,7.20
2024-02-02T02:12:13.488Z,7.20
2024-02-02T02:14:40.239Z,7.20
2024-02-02T02:17:07.493Z,7.20
2024-02-02T02:19:36.145Z,7.20
2024-02-02T02:22:03.588Z,7.20
2024-02-02T02:24:30.357Z,7.10
2024-02-02T02:26:57.447Z,7.10
2024-02-02T02:29:24.156Z,7.00
2024-02-02T02:31:55.345Z,7.00
2024-02-02T02:34:25.097Z,7.00
2024-02-02T02:36:51.922Z,7.00
2024-02-02T02:39:18.716Z,7.00
2024-02-02T02:41:45.680Z,6.90
2024-02-02T02:44:13.888Z,7.00
2024-02-02T02:46:41.350Z,7.00
2024-02-02T02:49:08.548Z,6.90
2024-02-02T02:51:35.476Z,6.90
2024-02-02T02:54:02.374Z,7.00
2024-02-02T02:56:29.050Z,6.90
2024-02-02T02:58:55.807Z,7.00
2024-02-02T03:01:22.897Z,7.00
2024-02-02T03:03:49.733Z,7.00
2024-02-02T03:06:16.586Z,6.90
2024-02-02T03:08:43.300Z,6.90
2024-02-02T03:11:10.010Z,6.90
2024-02-02T03:13:36.665Z,6.90
2024-02-02T03:16:03.944Z,6.90
2024-02-02T03:18:30.903Z,6.80
2024-02-02T03:20:57.804Z,6.90
2024-02-02T03:23:24.603Z,6.90
2024-02-02T03:25:51.261Z,6.80
2024-02-02T03:28:18.063Z,6.80
2024-02-02T03:30:44.792Z,6.70
2024-02-02T03:33:11.682Z,6.70
2024-02-02T03:35:38.467Z,6.70
2024-02-02T03:38:05.311Z,6.70
2024-02-02T03:40:32.138Z,6.70
2024-02-02T03:42:58.862Z,6.70
2024-02-02T03:45:25.673Z,6.70
2024-02-02T03:47:52.595Z,6.70
2024-02-02T03:50:19.451Z,6.70
2024-02-02T03:52:46.140Z,6.70
2024-02-02T03:55:12.910Z,6.60
2024-02-02T03:57:39.668Z,6.60
2024-02-02T04:00:07.033Z,6.50
2024-02-02T04:02:33.740Z,6.50
2024-02-02T04:05:00.415Z,6.50
2024-02-02T04:07:27.136Z,6.50
2024-02-02T04:09:53.790Z,6.50
2024-02-02T04:12:20.569Z,6.50
2024-02-02T04:14:47.376Z,6.50
2024-02-02T04:17:14.027Z,6.50
2024-02-02T04:19:40.764Z,6.40
2024-02-02T04:22:07.510Z,6.40
2024-02-02T04:24:34.335Z,6.30
2024-02-02T04:27:01.139Z,6.30
2024-02-02T04:29:28.358Z,6.30
2024-02-02T04:31:55.070Z,6.30
2024-02-02T04:34:21.981Z,6.30
2024-02-02T04:36:48.836Z,6.30
2024-02-02T04:39:15.709Z,6.30
2024-02-02T04:41:42.412Z,6.30
2024-02-02T04:44:09.129Z,6.30
2024-02-02T04:46:35.791Z,6.30
2024-02-02T04:49:02.634Z,6.30
2024-02-02T04:51:29.983Z,6.30
2024-02-02T04:53:56.820Z,6.30
2024-02-02T04:56:23.605Z,6.30
2024-02-02T04:58:53.025Z,6.30
2024-02-02T05:01:23.287Z,6.30
2024-02-02T05:03:50.067Z,6.20
2024-02-02T05:06:17.988Z,6.20
2024-02-02T05:08:45.232Z,6.20
2024-02-02T05:11:13.653Z,6.10
2024-02-02T05:13:40.528Z,6.10
2024-02-02T05:16:08.362Z,6.00
2024-02-02T05:18:35.235Z,6.00
2024-02-02T05:21:02.066Z,6.00
2024-02-02T05:23:29.736Z,5.90
2024-02-02T05:25:56.466Z,5.90
2024-02-02T05:28:23.158Z,6.00
2024-02-02T05:30:50.325Z,5.90
2024-02-02T05:33:17.650Z,6.00
2024-02-02T05:35:44.378Z,5.90
2024-02-02T05:38:11.074Z,5.90
2024-02-02T05:40:37.824Z,6.00
2024-02-02T05:43:06.018Z,6.00
2024-02-02T05:45:32.821Z,6.00
2024-02-02T05:47:59.618Z,6.00
2024-02-02T05:50:26.386Z,6.00
2024-02-02T05:52:53.031Z,6.10
2024-02-02T05:55:19.715Z,6.10
2024-02-02T05:57:46.380Z,6.10
2024-02-02T06:00:14.108Z,6.10
2024-02-02T06:02:40.792Z,6.10
2024-02-02T06:05:07.744Z,6.20
2024-02-02T06:07:34.426Z,6.20
2024-02-02T06:10:01.159Z,6.20
2024-02-02T06:12:27.904Z,6.30
2024-02-02T06:14:54.661Z,6.30
2024-02-02T06:17:21.408Z,6.30
2024-02-02T06:19:48.216Z,6.30
2024-02-02T06:22:15.009Z,6.30
2024-02-02T06:24:41.778Z,6.30
2024-02-02T06:27:08.550Z,6.30
2024-02-02T06:29:35.623Z,6.30
2024-02-02T06:32:02.383Z,6.30
2024-02-02T06:34:29.380Z,6.30
2024-02-02T06:36:56.073Z,6.30
2024-02-02T06:39:22.806Z,6.20
2024-02-02T06:41:49.568Z,6.20
2024-02-02T06:44:16.629Z,6.10
2024-02-02T06:46:43.743Z,6.10
2024-02-02T06:49:10.691Z,6.10
2024-02-02T06:51:37.506Z,6.10
2024-02-02T06:54:04.665Z,6.10
2024-02-02T06:56:40.096Z,6.10
2024-02-02T06:59:08.283Z,6.10
2024-02-02T07:01:35.518Z,6.10
2024-02-02T07:04:13.196Z,6.10
2024-02-02T07:06:40.466Z,6.20
2024-02-02T07:09:25.049Z,6.20
2024-02-02T07:12:00.122Z,6.30
2024-02-02T07:14:29.856Z,6.30
2024-02-02T07:16:56.505Z,6.30
2024-02-02T07:19:42.157Z,6.30
2024-02-02T07:22:21.031Z,6.30
2024-02-02T07:24:47.723Z,6.30
2024-02-02T07:27:35.833Z,6.30
2024-02-02T07:30:04.201Z,6.30
2024-02-02T07:32:31.121Z,6.30
2024-02-02T07:34:59.318Z,6.20
2024-02-02T07:37:55.683Z,6.20
2024-02-02T07:40:31.272Z,6.20
2024-02-02T07:42:58.649Z,6.20
2024-02-02T07:45:25.753Z,6.10
2024-02-02T07:47:53.197Z,6.10
2024-02-02T07:50:19.921Z,6.10
2024-02-02T07:52:46.664Z,6.10
2024-02-02T07:55:13.465Z,6.10
2024-02-02T07:57:40.283Z,6.10
2024-02-02T08:00:07.945Z,6.20
2024-02-02T08:02:35.785Z,6.20
2024-02-02T08:05:08.936Z,6.20
2024-02-02T08:07:36.000Z,6.20
2024-02-02T08:10:02.741Z,6.30
2024-02-02T08:12:30.744Z,6.30
2024-02-02T08:14:58.188Z,6.40
2024-02-02T08:17:24.901Z,6.40
2024-02-02T08:19:51.826Z,6.50
2024-02-02T08:22:18.658Z,6.60
2024-02-02T08:24:45.480Z,6.50
2024-02-02T08:27:12.232Z,6.60
2024-02-02T08:29:38.901Z,6.60
2024-02-02T08:32:06.810Z,6.60
2024-02-02T08:34:33.735Z,6.60
2024-02-02T08:37:02.973Z,6.70
2024-02-02T08:39:34.922Z,6.70
2024-02-02T08:42:10.733Z,6.70
2024-02-02T08:44:37.476Z,6.60
2024-02-02T08:47:04.308Z,6.70
2024-02-02T08:50:00.110Z,6.70
2024-02-02T08:52:49.042Z,6.70
2024-02-02T08:55:46.960Z,6.70
2024-02-02T08:58:24.893Z,6.70
2024-02-02T09:00:52.916Z,6.80
2024-02-02T09:03:41.926Z,6.80
2024-02-02T09:06:35.174Z,6.80
2024-02-02T09:09:06.547Z,6.80
2024-02-02T09:11:34.976Z,6.90
2024-02-02T09:14:09.894Z,6.90
2024-02-02T09:16:43.527Z,6.90
2024-02-02T09:19:47.372Z,7.00
2024-02-02T09:22:17.872Z,7.00
2024-02-02T09:24:46.789Z,7.10
2024-02-02T09:27:29.450Z,7.10
2024-02-02T09:29:56.526Z,7.10
2024-02-02T09:32:23.345Z,7.00
2024-02-02T09:34:50.376Z,7.10
2024-02-02T09:37:30.864Z,7.10
2024-02-02T09:39:58.315Z,7.20
2024-02-02T09:42:53.083Z,7.20
2024-02-02T09:45:52.226Z,7.20
2024-02-02T09:48:35.127Z,7.30
2024-02-02T09:51:21.985Z,7.30
2024-02-02T09:54:10.084Z,7.20
2024-02-02T09:57:06.639Z,7.30
2024-02-02T09:59:42.965Z,7.30
2024-02-02T10:02:18.784Z,7.40
2024-02-02T10:05:16.243Z,7.50
2024-02-02T10:07:51.916Z,7.50
2024-02-02T10:10:37.233Z,7.60
2024-02-02T10:13:38.531Z,7.60
2024-02-02T10:16:42.591Z,7.60
2024-02-02T10:19:34.366Z,7.70
2024-02-02T10:22:19.245Z,7.70
2024-02-02T10:25:15.985Z,7.70
2024-02-02T10:27:59.509Z,7.70
2024-02-02T10:30:57.074Z,7.80
2024-02-02T10:33:42.838Z,7.90
2024-02-02T10:36:21.471Z,7.90
2024-02-02T10:39:00.429Z,8.00
2024-02-02T10:41:37.863Z,8.00
2024-02-02T10:44:35.426Z,8.10
2024-02-02T10:47:45.014Z,8.20
2024-02-02T10:50:20.584Z,8.10
2024-02-02T10:53:16.106Z,8.20
2024-02-02T10:56:27.031Z,8.20
2024-02-02T10:59:12.573Z,8.30
2024-02-02T11:01:58.083Z,8.30
2024-02-02T11:04:56.705Z,8.30
2024-02-02T11:07:28.786Z,8.30
2024-02-02T11:10:14.181Z,8.30
2024-02-02T11:12:56.659Z,8.40
2024-02-02T11:15:42.366Z,8.40
2024-02-02T11:18:15.146Z,8.40
2024-02-02T11:20:56.019Z,8.50
2024-02-02T11:23:39.726Z,8.50
2024-02-02T11:26:06.473Z,8.60
2024-02-02T11:28:44.649Z,8.70
2024-02-02T11:31:30.635Z,8.70
2024-02-02T11:34:29.627Z,8.70
2024-02-02T11:37:07.637Z,8.80
2024-02-02T11:39:42.727Z,8.90
2024-02-02T11:42:12.486Z,8.90
2024-02-02T11:44:42.886Z,9.00
2024-02-02T11:47:11.902Z,9.10
2024-02-02T11:49:45.232Z,9.10
2024-02-02T11:52:30.430Z,9.20
2024-02-02T11:55:11.268Z,9.30
2024-02-02T11:57:42.362Z,9.40
2024-02-02T12:00:17.940Z,9.40
2024-02-02T12:02:47.554Z,9.50
2024-02-02T12:05:19.345Z,9.50
2024-02-02T12:07:58.057Z,9.50
2024-02-02T12:10:29.862Z,9.50
2024-02-02T12:13:00.374Z,9.60
2024-02-02T12:15:30.757Z,9.70
2024-02-02T12:17:59.728Z,9.70
2024-02-02T12:20:30.490Z,9.70
2024-02-02T12:22:57.561Z,9.70
2024-02-02T12:25:26.087Z,9.80
2024-02-02T12:27:53.104Z,9.70
2024-02-02T12:30:20.005Z,9.80
2024-02-02T12:32:56.307Z,9.80
2024-02-02T12:35:27.226Z,9.80
2024-02-02T12:37:54.559Z,9.90
2024-02-02T12:40:21.434Z,10.00
2024-02-02T12:42:51.566Z,10.00
2024-02-02T12:45:19.080Z,10.10
2024-02-02T12:47:46.188Z,10.10
2024-02-02T12:50:18.806Z,10.10
2024-02-02T12:52:46.526Z,10.10
2024-02-02T12:55:13.759Z,10.10
2024-02-02T12:57:42.779Z,10.20
2024-02-02T13:00:16.558Z,10.20
2024-02-02T13:02:46.297Z,10.20
2024-02-02T13:05:18.522Z,10.30
2024-02-02T13:07:46.686Z,10.30
2024-02-02T13:10:13.407Z,10.40
2024-02-02T13:12:47.574Z,10.40
2024-02-02T13:15:19.075Z,10.50
2024-02-02T13:18:01.000Z,10.50
2024-02-02T13:20:36.439Z,10.50
2024-02-02T13:23:14.298Z,10.60
2024-02-02T13:25:41.675Z,10.60
2024-02-02T13:28:16.957Z,10.70
2024-02-02T13:30:54.840Z,10.70
2024-02-02T13:33:27.278Z,10.70
2024-02-02T13:35:54.986Z,10.70
2024-02-02T13:38:22.481Z,10.80
2024-02-02T13:40:52.897Z,10.70
2024-02-02T13:43:19.666Z,10.70
2024-02-02T13:45:48.098Z,10.80
2024-02-02T13:48:15.952Z,10.80
2024-02-02T13:51:00.599Z,10.80
2024-02-02T13:53:28.001Z,10.90
2024-02-02T13:55:55.237Z,10.90
2024-02-02T13:58:23.101Z,10.90
2024-02-02T14:00:49.859Z,10.90
2024-02-02T14:03:19.610Z,10.90
2024-02-02T14:05:46.758Z,11.00
2024-02-02T14:08:15.327Z,10.90
2024-02-02T14:10:46.537Z,11.00
2024-02-02T14:13:18.181Z,10.90
2024-02-02T14:15:49.828Z,10.90
2024-02-02T14:18:17.955Z,10.90
2024-02-02T14:20:44.653Z,11.00
2024-02-02T14:23:12.610Z,11.00
2024-02-02T14:25:40.787Z,11.00
2024-02-02T14:28:18.560Z,11.00
2024-02-02T14:30:46.426Z,11.00
2024-02-02T14:33:22.009Z,11.00
2024-02-02T14:35:52.217Z,11.00
2024-02-02T14:38:18.915Z,11.00
2024-02-02T14:40:45.569Z,11.00
2024-02-02T14:43:12.253Z,11.00
2024-02-02T14:45:39.128Z,11.00
2024-02-02T14:48:06.354Z,11.00
2024-02-02T14:50:34.713Z,11.00
2024-02-02T14:53:01.836Z,11.00
2024-02-02T14:55:29.978Z,10.90
2024-02-02T14:58:00.214Z,11.00
2024-02-02T15:00:31.593Z,10.90
2024-02-02T15:02:58.875Z,11.00
2024-02-02T15:05:26.561Z,10.90
2024-02-02T15:07:54.111Z,10.90
2024-02-02T15:10:21.244Z,10.90
2024-02-02T15:12:49.114Z,10.90
2024-02-02T15:15:16.321Z,10.90
2024-02-02T15:17:43.267Z,10.90
2024-02-02T15:20:11.616Z,10.90
2024-02-02T15:22:38.735Z,10.90
2024-02-02T15:25:06.598Z,10.90
2024-02-02T15:27:36.521Z,10.80
2024-02-02T15:30:06.169Z,10.90
2024-02-02T15:32:32.949Z,10.90
2024-02-02T15:35:00.058Z,10.90
2024-02-02T15:37:27.300Z,10.90
2024-02-02T15:39:58.323Z,10.90
2024-02-02T15:42:26.371Z,10.80
2024-02-02T15:44:54.265Z,10.80
2024-02-02T15:47:21.616Z,10.80
2024-02-02T15:49:49.283Z,10.80
2024-02-02T15:52:16.098Z,10.80
2024-02-02T15:54:43.544Z,10.80
2024-02-02T15:57:11.500Z,10.80
2024-02-02T15:59:39.366Z,10.80
2024-02-02T16:02:09.246Z,10.80
2024-02-02T16:04:36.453Z,10.80
2024-02-02T16:07:05.403Z,10.70
2024-02-02T16:09:42.280Z,10.70
2024-02-02T16:12:13.805Z,10.70
2024-02-02T16:14:42.441Z,10.60
2024-02-02T16:17:09.462Z,10.60
2024-02-02T16:19:37.095Z,10.60
2024-02-02T16:22:04.092Z,10.60
2024-02-02T16:24:31.437Z,10.50
2024-02-02T16:26:58.417Z,10.50
2024-02-02T16:29:25.090Z,10.50
2024-02-02T16:31:51.788Z,10.50
2024-02-02T16:34:18.576Z,10.50
2024-02-02T16:36:46.448Z,10.50
2024-02-02T16:39:14.863Z,10.50
2024-02-02T16:41:42.978Z,10.40
2024-02-02T16:44:10.047Z,10.40
2024-02-02T16:46:41.691Z,10.40
2024-02-02T16:49:09.477Z,10.40
2024-02-02T16:51:37.686Z,10.40
2024-02-02T16:54:11.082Z,10.30
2024-02-02T16:56:38.309Z,10.30
2024-02-02T16:59:05.252Z,10.30
2024-02-02T17:01:35.827Z,10.20
2024-02-02T17:04:03.455Z,10.20
2024-02-02T17:06:30.962Z,10.10
2024-02-02T17:08:58.082Z,10.10
2024-02-02T17:11:25.030Z,10.10
2024-02-02T17:13:51.727Z,10.10
2024-02-02T17:16:21.600Z,10.00
2024-02-02T17:18:48.597Z,10.00
2024-02-02T17:21:15.745Z,10.00
2024-02-02T17:23:42.419Z,9.90
2024-02-02T17:26:17.103Z,9.90
2024-02-02T17:28:44.603Z,9.80
2024-02-02T17:31:12.472Z,9.80
2024-02-02T17:33:40.090Z,9.80
2024-02-02T17:36:11.212Z,9.70
2024-02-02T17:38:38.949Z,9.60
2024-02-02T17:41:13.270Z,9.60
2024-02-02T17:43:41.135Z,9.60
2024-02-02T17:46:08.267Z,9.60
2024-02-02T17:48:35.712Z,9.60
2024-02-02T17:51:08.701Z,9.60
2024-02-02T17:53:36.074Z,9.60
2024-02-02T17:56:07.222Z,9.60
2024-02-02T17:58:34.010Z,9.50
2024-02-02T18:01:01.507Z,9.50
2024-02-02T18:03:29.547Z,9.50
2024-02-02T18:05:56.293Z,9.50
2024-02-02T18:08:23.458Z,9.50
2024-02-02T18:10:50.622Z,9.50
2024-02-02T18:13:17.487Z,9.40
2024-02-02T18:15:44.483Z,9.40
2024-02-02T18:18:12.267Z,9.40
2024-02-02T18:20:39.064Z,9.30
2024-02-02T18:23:06.905Z,9.30
2024-02-02T18:25:33.677Z,9.20
2024-02-02T18:28:00.380Z,9.20
2024-02-02T18:30:28.828Z,9.10
2024-02-02T18:32:55.744Z,9.00
2024-02-02T18:35:22.596Z,8.90
2024-02-02T18:37:54.245Z,8.80
2024-02-02T18:40:24.475Z,8.60
2024-02-02T18:42:51.440Z,8.60
2024-02-02T18:45:18.309Z,8.50
2024-02-02T18:47:45.132Z,8.30
2024-02-02T18:50:12.319Z,8.30
2024-02-02T18:52:39.250Z,8.20
2024-02-02T18:55:06.563Z,8.10
2024-02-02T18:57:33.232Z,8.10
2024-02-02T18:59:59.960Z,8.00
2024-02-02T19:02:26.677Z,8.00
2024-02-02T19:04:54.006Z,7.90
2024-02-02T19:07:21.089Z,7.90
2024-02-02T19:09:47.975Z,7.90
2024-02-02T19:12:15.956Z,8.00
2024-02-02T19:14:42.721Z,8.00
2024-02-02T19:17:09.398Z,8.00
2024-02-02T19:19:36.222Z,7.90
2024-02-02T19:22:03.686Z,7.90
2024-02-02T19:24:30.550Z,8.00
2024-02-02T19:26:57.463Z,7.90
2024-02-02T19:29:24.385Z,7.90
2024-02-02T19:31:52.564Z,7.90
2024-02-02T19:34:19.630Z,7.70
2024-02-02T19:36:46.641Z,7.70
2024-02-02T19:39:13.772Z,7.60
2024-02-02T19:41:40.810Z,7.60
2024-02-02T19:44:07.759Z,7.50
2024-02-02T19:46:35.255Z,7.50
2024-02-02T19:49:03.664Z,7.50
2024-02-02T19:51:31.894Z,7.50
2024-02-02T19:53:58.823Z,7.40
2024-02-02T19:56:25.780Z,7.40
2024-02-02T19:58:52.570Z,7.40
2024-02-02T20:01:21.469Z,7.30
2024-02-02T20:03:49.962Z,7.30
2024-02-02T20:06:18.300Z,7.20
2024-02-02T20:08:46.713Z,7.20
2024-02-02T20:11:17.498Z,7.20
2024-02-02T20:13:44.713Z,7.10
2024-02-02T20:16:15.044Z,7.00
2024-02-02T20:18:41.902Z,7.00
2024-02-02T20:21:08.876Z,7.00
2024-02-02T20:23:37.598Z,7.00
2024-02-02T20:26:07.447Z,7.00
2024-02-02T20:28:34.376Z,7.00
2024-02-02T20:31:02.792Z,6.90
2024-02-02T20:33:29.489Z,6.90
2024-02-02T20:35:56.208Z,6.90
2024-02-02T20:38:23.247Z,6.90
2024-02-02T20:40:49.933Z,6.90
2024-02-02T20:43:16.690Z,6.90
2024-02-02T20:45:43.578Z,6.80
2024-02-02T20:48:10.488Z,6.80
2024-02-02T20:50:37.549Z,6.80
2024-02-02T20:53:04.440Z,6.70
2024-02-02T20:55:31.082Z,6.80
2024-02-02T20:58:01.989Z,6.80
2024-02-02T21:00:29.486Z,6.80
2024-02-02T21:02:56.452Z,6.70
2024-02-02T21:05:25.056Z,6.70
2024-02-02T21:07:53.082Z,6.60
2024-02-02T21:10:20.159Z,6.60
2024-02-02T21:12:47.284Z,6.50
2024-02-02T21:15:15.088Z,6.50
2024-02-02T21:17:48.662Z,6.50
2024-02-02T21:20:15.618Z,6.50
2024-02-02T21:22:42.454Z,6.40
2024-02-02T21:25:10.147Z,6.40
2024-02-02T21:27:37.081Z,6.40
2024-02-02T21:30:04.990Z,6.50
2024-02-02T21:32:31.803Z,6.40
2024-02-02T21:34:58.589Z,6.40
2024-02-02T21:37:25.313Z,6.30
2024-02-02T21:39:52.064Z,6.30
2024-02-02T21:42:18.880Z,6.30
2024-02-02T21:44:45.611Z,6.30
2024-02-02T21:47:12.461Z,6.20
2024-02-02T21:49:43.170Z,6.20
2024-02-02T21:52:11.026Z,6.20
2024-02-02T21:54:37.987Z,6.20
2024-02-02T21:57:05.176Z,6.20
2024-02-02T21:59:31.911Z,6.20
2024-02-02T22:01:58.650Z,6.10
2024-02-02T22:04:25.374Z,6.10
2024-02-02T22:06:52.767Z,6.00
2024-02-02T22:09:19.686Z,6.00
2024-02-02T22:11:46.510Z,6.00
2024-02-02T22:14:13.204Z,6.00
2024-02-02T22:16:39.852Z,6.10
2024-02-02T22:19:06.570Z,6.10
2024-02-02T22:21:35.898Z,6.10
2024-02-02T22:24:02.976Z,6.10
2024-02-02T22:26:29.601Z,6.10
2024-02-02T22:28:56.976Z,6.20
2024-02-02T22:31:23.949Z,6.20
2024-02-02T22:33:51.120Z,6.20
2024-02-02T22:36:25.387Z,6.20
2024-02-02T22:38:56.214Z,6.20
2024-02-02T22:41:32.507Z,6.20
2024-02-02T22:44:01.703Z,6.20
2024-02-02T22:46:32.150Z,6.30
2024-02-02T22:48:59.186Z,6.20
2024-02-02T22:51:26.221Z,6.10
2024-02-02T22:53:53.099Z,6.10
2024-02-02T22:56:19.922Z,6.00
2024-02-02T22:58:46.612Z,6.00
2024-02-02T23:01:13.549Z,5.90
2024-02-02T23:03:40.545Z,5.90
2024-02-02T23:06:07.781Z,5.80
2024-02-02T23:08:34.575Z,5.80
2024-02-02T23:11:01.364Z,5.80
2024-02-02T23:13:28.048Z,5.80
2024-02-02T23:15:57.032Z,5.80
2024-02-02T23:18:25.134Z,5.80
2024-02-02T23:20:53.546Z,5.70
2024-02-02T23:23:20.379Z,5.70
2024-02-02T23:25:47.075Z,5.70
2024-02-02T23:28:13.961Z,5.70
2024-02-02T23:30:41.092Z,5.70
2024-02-02T23:33:08.078Z,5.70
2024-02-02T23:35:34.929Z,5.70
2024-02-02T23:38:01.688Z,5.60
2024-02-02T23:40:28.820Z,5.60
2024-02-02T23:42:55.478Z,5.50
2024-02-02T23:45:22.451Z,5.50
2024-02-02T23:47:49.229Z,5.50
2024-02-02T23:50:16.175Z,5.40
2024-02-02T23:52:42.940Z,5.40
2024-02-02T23:55:10.389Z,5.50
2024-02-02T23:57:37.914Z,5.50
